createdAt,value
2023-05-07T00:02:20.137Z,6.57
2023-05-07T00:04:47.455Z,6.80
2023-05-07T00:07:14.636Z,6.55
2023-05-07T00:09:41.794Z,6.97
2023-05-07T00:12:09.288Z,6.55
2023-05-07T00:14:36.423Z,6.50
2023-05-07T00:17:03.686Z,6.50
2023-05-07T00:19:30.803Z,6.47
2023-05-07T00:21:57.997Z,6.45
2023-05-07T00:24:25.315Z,5.97
2023-05-07T00:26:53.624Z,6.72
2023-05-07T00:29:21.033Z,6.53
2023-05-07T00:31:48.275Z,5.65
2023-05-07T00:34:15.447Z,6.50
2023-05-07T00:36:42.524Z,6.70
2023-05-07T00:39:09.791Z,6.78
2023-05-07T00:41:36.976Z,7.13
2023-05-07T00:44:04.082Z,6.80
2023-05-07T00:46:32.452Z,6.68
2023-05-07T00:48:59.682Z,6.40
2023-05-07T00:51:28.334Z,6.95
2023-05-07T00:53:55.852Z,6.88
2023-05-07T00:56:23.404Z,7.53
2023-05-07T00:58:51.050Z,6.53
2023-05-07T01:01:18.243Z,6.68
2023-05-07T01:03:45.773Z,6.30
2023-05-07T01:06:14.058Z,7.00
2023-05-07T01:08:42.824Z,6.13
2023-05-07T01:11:10.520Z,6.35
2023-05-07T01:13:38.235Z,6.78
2023-05-07T01:16:06.189Z,6.20
2023-05-07T01:18:33.753Z,6.43
2023-05-07T01:21:02.703Z,6.70
2023-05-07T01:23:30.719Z,6.55
2023-05-07T01:25:57.805Z,6.50
2023-05-07T01:28:24.990Z,6.95
2023-05-07T01:30:54.329Z,6.55
2023-05-07T01:33:23.306Z,7.45
2023-05-07T01:35:51.940Z,6.95
2023-05-07T01:38:19.856Z,6.85
2023-05-07T01:40:47.220Z,6.60
2023-05-07T01:43:14.489Z,6.78
2023-05-07T01:45:41.884Z,7.03
2023-05-07T01:48:10.242Z,6.22
2023-05-07T01:50:37.849Z,6.40
2023-05-07T01:53:05.060Z,6.18
2023-05-07T01:55:32.385Z,6.63
2023-05-07T01:57:59.501Z,6.65
2023-05-07T02:00:26.801Z,6.68
2023-05-07T02:02:54.172Z,6.57
2023-05-07T02:05:21.439Z,7.15
2023-05-07T02:07:48.544Z,6.68
2023-05-07T02:10:15.780Z,6.40
2023-05-07T02:12:43.740Z,6.20
2023-05-07T02:15:11.585Z,5.85
2023-05-07T02:17:41.698Z,6.05
2023-05-07T02:20:14.182Z,6.43
2023-05-07T02:22:41.362Z,6.07
2023-05-07T02:25:08.638Z,6.10
2023-05-07T02:27:35.795Z,6.03
2023-05-07T02:30:02.966Z,5.65
2023-05-07T02:32:30.081Z,6.03
2023-05-07T02:34:57.216Z,6.25
2023-05-07T02:37:24.296Z,6.60
2023-05-07T02:39:51.391Z,5.85
2023-05-07T02:42:18.516Z,5.88
2023-05-07T02:44:45.737Z,5.63
2023-05-07T02:47:14.085Z,6.70
2023-05-07T02:49:41.220Z,5.65
2023-05-07T02:52:08.631Z,5.82
2023-05-07T02:54:35.716Z,5.90
2023-05-07T02:57:03.149Z,6.65
2023-05-07T02:59:30.354Z,5.90
2023-05-07T03:01:57.547Z,5.78
2023-05-07T03:04:24.770Z,5.60
2023-05-07T03:06:51.934Z,5.65
2023-05-07T03:09:19.062Z,5.38
2023-05-07T03:11:46.189Z,5.93
2023-05-07T03:14:13.315Z,6.20
2023-05-07T03:16:41.829Z,6.13
2023-05-07T03:19:08.992Z,5.95
2023-05-07T03:21:36.249Z,6.05
2023-05-07T03:24:03.351Z,5.40
2023-05-07T03:26:30.480Z,5.50
2023-05-07T03:28:57.568Z,5.72
2023-05-07T03:31:24.748Z,5.55
2023-05-07T03:33:55.913Z,5.60
2023-05-07T03:36:23.362Z,6.00
2023-05-07T03:38:51.678Z,5.90
2023-05-07T03:41:18.846Z,5.72
2023-05-07T03:43:46.048Z,5.82
2023-05-07T03:46:13.253Z,5.25
2023-05-07T03:48:40.404Z,5.60
2023-05-07T03:51:07.568Z,5.22
2023-05-07T03:53:34.764Z,5.32
2023-05-07T03:56:01.943Z,5.20
2023-05-07T03:58:29.083Z,4.93
2023-05-07T04:00:56.377Z,5.30
2023-05-07T04:03:23.587Z,5.05
2023-05-07T04:05:50.821Z,4.50
2023-05-07T04:08:17.977Z,5.00
2023-05-07T04:10:45.260Z,5.28
2023-05-07T04:13:12.585Z,5.15
2023-05-07T04:15:39.737Z,5.18
2023-05-07T04:18:06.900Z,4.82
2023-05-07T04:20:37.556Z,4.70
2023-05-07T04:23:04.690Z,4.82
2023-05-07T04:25:31.871Z,5.00
2023-05-07T04:27:59.587Z,4.85
2023-05-07T04:30:26.954Z,4.57
2023-05-07T04:32:54.306Z,4.25
2023-05-07T04:35:21.474Z,4.40
2023-05-07T04:37:48.562Z,3.88
2023-05-07T04:40:15.775Z,4.90
2023-05-07T04:42:42.952Z,3.90
2023-05-07T04:45:11.233Z,4.43
2023-05-07T04:47:38.413Z,3.97
2023-05-07T04:50:05.917Z,3.83
2023-05-07T04:52:33.097Z,4.18
2023-05-07T04:55:03.125Z,4.03
2023-05-07T04:57:30.289Z,4.32
2023-05-07T04:59:57.429Z,3.92
2023-05-07T05:02:24.639Z,3.92
2023-05-07T05:04:51.792Z,3.95
2023-05-07T05:07:18.889Z,3.90
2023-05-07T05:09:46.846Z,4.22
2023-05-07T05:12:13.978Z,3.92
2023-05-07T05:14:41.144Z,3.85
2023-05-07T05:17:08.247Z,4.07
2023-05-07T05:19:35.393Z,3.90
2023-05-07T05:22:04.747Z,3.55
2023-05-07T05:24:32.431Z,3.65
2023-05-07T05:27:02.263Z,4.25
2023-05-07T05:29:29.441Z,3.65
2023-05-07T05:31:56.815Z,3.50
2023-05-07T05:34:24.043Z,4.20
2023-05-07T05:36:51.290Z,4.80
2023-05-07T05:39:18.809Z,3.97
2023-05-07T05:41:45.937Z,3.60
2023-05-07T05:44:13.072Z,3.63
2023-05-07T05:46:40.361Z,3.80
2023-05-07T05:49:07.971Z,4.03
2023-05-07T05:51:35.488Z,4.20
2023-05-07T05:54:02.622Z,4.05
2023-05-07T05:56:29.762Z,4.25
2023-05-07T05:58:56.879Z,4.35
2023-05-07T06:01:24.045Z,4.50
2023-05-07T06:03:51.134Z,4.78
2023-05-07T06:06:18.386Z,4.60
2023-05-07T06:08:45.516Z,3.78
2023-05-07T06:11:12.648Z,4.38
2023-05-07T06:13:39.726Z,4.60
2023-05-07T06:16:07.183Z,4.18
2023-05-07T06:18:34.450Z,4.10
2023-05-07T06:21:01.609Z,3.90
2023-05-07T06:23:28.717Z,4.00
2023-05-07T06:25:56.015Z,3.70
2023-05-07T06:28:23.121Z,3.47
2023-05-07T06:30:51.201Z,4.00
2023-05-07T06:33:18.304Z,3.33
2023-05-07T06:35:45.403Z,3.53
2023-05-07T06:38:13.336Z,3.50
2023-05-07T06:40:40.472Z,3.60
2023-05-07T06:43:07.599Z,3.00
2023-05-07T06:45:34.701Z,3.03
2023-05-07T06:48:02.578Z,2.72
2023-05-07T06:50:29.707Z,2.95
2023-05-07T06:52:56.841Z,2.50
2023-05-07T06:55:23.943Z,2.72
2023-05-07T06:57:51.103Z,2.30
2023-05-07T07:00:18.426Z,2.42
2023-05-07T07:02:45.714Z,2.47
2023-05-07T07:05:12.970Z,2.30
2023-05-07T07:07:40.136Z,2.30
2023-05-07T07:10:07.607Z,2.42
2023-05-07T07:12:34.830Z,2.60
2023-05-07T07:15:02.192Z,2.42
2023-05-07T07:17:29.634Z,2.35
2023-05-07T07:19:56.771Z,2.38
2023-05-07T07:22:23.970Z,2.20
2023-05-07T07:24:52.096Z,2.30
2023-05-07T07:27:19.271Z,2.22
2023-05-07T07:29:46.420Z,2.10
2023-05-07T07:32:13.557Z,2.10
2023-05-07T07:34:40.808Z,2.00
2023-05-07T07:37:07.949Z,1.80
2023-05-07T07:39:35.125Z,2.40
2023-05-07T07:42:02.240Z,2.35
2023-05-07T07:44:29.663Z,2.00
2023-05-07T07:46:56.854Z,2.20
2023-05-07T07:49:24.010Z,2.20
2023-05-07T07:51:52.108Z,2.10
2023-05-07T07:54:19.239Z,2.13
2023-05-07T07:56:46.365Z,2.50
2023-05-07T07:59:15.613Z,2.65
2023-05-07T08:01:42.765Z,2.03
2023-05-07T08:04:10.165Z,2.80
2023-05-07T08:06:37.289Z,2.20
2023-05-07T08:09:04.574Z,2.00
2023-05-07T08:11:31.728Z,2.08
2023-05-07T08:13:58.848Z,2.03
2023-05-07T08:16:26.320Z,2.10
2023-05-07T08:18:53.524Z,1.85
2023-05-07T08:21:21.175Z,1.95
2023-05-07T08:23:48.339Z,2.45
2023-05-07T08:26:15.579Z,2.20
2023-05-07T08:28:42.696Z,2.25
2023-05-07T08:31:09.839Z,1.98
2023-05-07T08:33:37.039Z,1.73
2023-05-07T08:36:04.221Z,1.75
2023-05-07T08:38:31.352Z,1.90
2023-05-07T08:40:58.636Z,2.20
2023-05-07T08:43:28.901Z,2.20
2023-05-07T08:45:56.286Z,1.70
2023-05-07T08:48:27.362Z,2.15
2023-05-07T08:50:54.521Z,1.88
2023-05-07T08:53:22.172Z,2.38
2023-05-07T08:55:49.681Z,1.90
2023-05-07T08:58:16.825Z,2.20
2023-05-07T09:00:44.351Z,2.08
2023-05-07T09:03:13.702Z,2.20
2023-05-07T09:05:41.169Z,2.17
2023-05-07T09:08:09.011Z,2.20
2023-05-07T09:10:36.208Z,2.88
2023-05-07T09:13:05.267Z,2.75
2023-05-07T09:15:32.506Z,2.50
2023-05-07T09:18:02.557Z,2.83
2023-05-07T09:20:31.794Z,2.72
2023-05-07T09:22:58.918Z,2.35
2023-05-07T09:25:29.748Z,2.60
2023-05-07T09:27:56.900Z,2.50
2023-05-07T09:30:24.029Z,2.53
2023-05-07T09:32:51.488Z,2.47
2023-05-07T09:35:19.052Z,2.10
2023-05-07T09:37:46.684Z,2.30
2023-05-07T09:40:24.029Z,2.30
2023-05-07T09:42:51.264Z,2.28
2023-05-07T09:45:23.265Z,3.75
2023-05-07T09:47:51.552Z,2.45
2023-05-07T09:50:20.546Z,2.10
2023-05-07T09:52:47.783Z,2.90
2023-05-07T09:55:15.578Z,2.35
2023-05-07T09:57:43.724Z,2.33
2023-05-07T10:00:12.042Z,2.33
2023-05-07T10:02:47.236Z,2.00
2023-05-07T10:05:15.868Z,2.08
2023-05-07T10:07:43.053Z,2.40
2023-05-07T10:10:10.437Z,1.85
2023-05-07T10:12:40.030Z,2.10
2023-05-07T10:15:08.458Z,2.13
2023-05-07T10:17:39.556Z,2.30
2023-05-07T10:20:08.599Z,2.03
2023-05-07T10:22:46.251Z,1.88
2023-05-07T10:25:19.552Z,2.00
2023-05-07T10:27:48.316Z,2.20
2023-05-07T10:30:34.528Z,1.98
2023-05-07T10:33:06.972Z,1.85
2023-05-07T10:35:39.432Z,1.95
2023-05-07T10:38:06.783Z,2.10
2023-05-07T10:40:34.146Z,1.73
2023-05-07T10:43:02.549Z,1.80
2023-05-07T10:45:30.366Z,1.50
2023-05-07T10:48:27.204Z,1.90
2023-05-07T10:51:16.207Z,2.00
2023-05-07T10:53:43.336Z,2.20
2023-05-07T10:56:19.889Z,1.80
2023-05-07T10:58:47.031Z,2.10
2023-05-07T11:01:15.843Z,2.42
2023-05-07T11:04:01.921Z,2.88
2023-05-07T11:06:29.116Z,2.78
2023-05-07T11:08:56.440Z,1.92
2023-05-07T11:11:42.931Z,3.55
2023-05-07T11:14:10.085Z,3.17
2023-05-07T11:16:38.750Z,2.92
2023-05-07T11:19:05.924Z,3.05
2023-05-07T11:21:33.823Z,2.78
2023-05-07T11:24:01.407Z,3.40
2023-05-07T11:26:29.408Z,3.10
2023-05-07T11:28:57.761Z,2.95
2023-05-07T11:31:26.921Z,3.80
2023-05-07T11:33:54.787Z,3.15
2023-05-07T11:36:22.648Z,3.22
2023-05-07T11:38:49.830Z,3.42
2023-05-07T11:41:17.097Z,4.07
2023-05-07T11:43:57.595Z,3.65
2023-05-07T11:46:24.988Z,3.30
2023-05-07T11:48:52.442Z,3.60
2023-05-07T11:51:23.335Z,3.63
2023-05-07T11:53:50.535Z,2.88
2023-05-07T11:56:19.033Z,3.78
2023-05-07T11:58:47.017Z,7.10
2023-05-07T12:01:14.664Z,4.07
2023-05-07T12:03:47.098Z,2.95
2023-05-07T12:06:16.895Z,3.70
2023-05-07T12:08:47.082Z,3.13
2023-05-07T12:11:18.384Z,3.42
2023-05-07T12:13:45.802Z,2.85
2023-05-07T12:16:13.127Z,3.38
2023-05-07T12:18:40.751Z,3.60
2023-05-07T12:21:08.671Z,2.60
2023-05-07T12:23:37.308Z,3.03
2023-05-07T12:26:07.177Z,2.67
2023-05-07T12:28:38.710Z,3.00
2023-05-07T12:31:06.687Z,3.10
2023-05-07T12:33:34.109Z,2.85
2023-05-07T12:36:04.467Z,2.67
2023-05-07T12:38:35.900Z,2.95
2023-05-07T12:41:03.092Z,3.15
2023-05-07T12:43:30.657Z,2.40
2023-05-07T12:45:59.283Z,2.80
2023-05-07T12:48:28.048Z,2.35
2023-05-07T12:50:55.839Z,2.10
2023-05-07T12:53:24.161Z,1.98
2023-05-07T12:55:52.493Z,2.38
2023-05-07T12:58:20.575Z,2.40
2023-05-07T13:00:49.681Z,2.20
2023-05-07T13:03:24.537Z,1.90
2023-05-07T13:05:52.214Z,2.15
2023-05-07T13:08:31.284Z,2.10
2023-05-07T13:10:59.065Z,1.88
2023-05-07T13:13:26.390Z,1.95
2023-05-07T13:15:53.608Z,1.67
2023-05-07T13:18:20.905Z,1.70
2023-05-07T13:20:48.119Z,1.98
2023-05-07T13:23:15.339Z,2.38
2023-05-07T13:25:42.500Z,1.98
2023-05-07T13:28:11.241Z,1.70
2023-05-07T13:30:38.860Z,1.92
2023-05-07T13:33:06.188Z,1.98
2023-05-07T13:35:33.400Z,1.98
2023-05-07T13:38:00.550Z,1.85
2023-05-07T13:40:27.734Z,2.00
2023-05-07T13:42:55.398Z,1.80
2023-05-07T13:45:22.594Z,2.10
2023-05-07T13:47:50.525Z,1.80
2023-05-07T13:50:17.922Z,1.63
2023-05-07T13:52:51.677Z,2.45
2023-05-07T13:55:22.590Z,2.08
2023-05-07T13:57:49.740Z,2.33
2023-05-07T14:00:17.344Z,2.05
2023-05-07T14:02:44.986Z,2.20
2023-05-07T14:05:12.486Z,2.15
2023-05-07T14:07:39.609Z,2.20
2023-05-07T14:10:07.021Z,2.17
2023-05-07T14:12:34.368Z,2.25
2023-05-07T14:15:01.540Z,2.25
2023-05-07T14:17:28.702Z,2.17
2023-05-07T14:19:56.054Z,2.60
2023-05-07T14:22:24.196Z,2.05
2023-05-07T14:25:05.275Z,2.33
2023-05-07T14:27:39.003Z,2.28
2023-05-07T14:30:06.498Z,2.47
2023-05-07T14:32:34.411Z,2.83
2023-05-07T14:35:01.593Z,2.67
2023-05-07T14:37:29.532Z,2.97
2023-05-07T14:39:56.678Z,2.50
2023-05-07T14:42:23.805Z,2.78
2023-05-07T14:44:51.047Z,2.40
2023-05-07T14:47:19.952Z,2.75
2023-05-07T14:49:47.334Z,2.58
2023-05-07T14:52:14.498Z,2.92
2023-05-07T14:54:41.633Z,3.20
2023-05-07T14:57:10.917Z,2.90
2023-05-07T14:59:39.265Z,2.95
2023-05-07T15:02:08.379Z,2.72
2023-05-07T15:04:35.940Z,2.75
2023-05-07T15:07:03.052Z,2.72
2023-05-07T15:09:30.811Z,2.78
2023-05-07T15:11:57.961Z,2.60
2023-05-07T15:14:25.100Z,2.97
2023-05-07T15:16:52.265Z,2.88
2023-05-07T15:19:19.415Z,3.03
2023-05-07T15:21:46.531Z,2.72
2023-05-07T15:24:13.642Z,3.08
2023-05-07T15:26:40.821Z,2.58
2023-05-07T15:29:09.117Z,2.65
2023-05-07T15:31:37.696Z,2.20
2023-05-07T15:34:04.965Z,2.35
2023-05-07T15:36:32.064Z,2.25
2023-05-07T15:38:59.259Z,2.42
2023-05-07T15:41:26.676Z,2.05
2023-05-07T15:43:54.315Z,2.45
2023-05-07T15:46:22.651Z,2.33
2023-05-07T15:48:49.931Z,2.80
2023-05-07T15:51:17.907Z,2.80
2023-05-07T15:53:45.250Z,2.50
2023-05-07T15:56:12.475Z,2.45
2023-05-07T15:58:39.568Z,2.20
2023-05-07T16:01:08.880Z,2.10
2023-05-07T16:03:36.389Z,2.22
2023-05-07T16:06:03.746Z,2.28
2023-05-07T16:08:31.033Z,2.00
2023-05-07T16:10:58.149Z,2.30
2023-05-07T16:13:25.904Z,2.00
2023-05-07T16:15:59.744Z,1.90
2023-05-07T16:18:26.971Z,1.85
2023-05-07T16:20:57.959Z,1.80
2023-05-07T16:23:25.757Z,1.90
2023-05-07T16:25:52.852Z,1.52
2023-05-07T16:28:19.978Z,2.05
2023-05-07T16:30:47.117Z,1.65
2023-05-07T16:33:14.865Z,1.98
2023-05-07T16:35:43.993Z,1.95
2023-05-07T16:38:11.620Z,1.80
2023-05-07T16:40:39.947Z,1.90
2023-05-07T16:43:07.154Z,1.80
2023-05-07T16:45:34.364Z,1.67
2023-05-07T16:48:03.123Z,1.70
2023-05-07T16:50:30.432Z,2.10
2023-05-07T16:52:57.614Z,2.15
2023-05-07T16:55:24.896Z,1.67
2023-05-07T16:57:52.166Z,1.67
2023-05-07T17:00:19.358Z,1.83
2023-05-07T17:02:47.126Z,2.22
2023-05-07T17:05:14.766Z,1.90
2023-05-07T17:07:42.194Z,1.98
2023-05-07T17:10:09.567Z,2.17
2023-05-07T17:12:37.689Z,1.90
2023-05-07T17:15:05.112Z,1.67
2023-05-07T17:17:32.783Z,2.15
2023-05-07T17:20:00.088Z,2.30
2023-05-07T17:22:27.373Z,2.20
2023-05-07T17:24:54.522Z,2.28
2023-05-07T17:27:21.731Z,2.50
2023-05-07T17:29:48.834Z,2.13
2023-05-07T17:32:16.269Z,2.00
2023-05-07T17:34:43.416Z,2.08
2023-05-07T17:37:10.513Z,2.28
2023-05-07T17:39:37.840Z,2.70
2023-05-07T17:42:05.065Z,2.15
2023-05-07T17:44:33.722Z,1.77
2023-05-07T17:47:00.957Z,2.42
2023-05-07T17:49:28.286Z,2.15
2023-05-07T17:51:55.960Z,2.08
2023-05-07T17:54:27.003Z,1.80
2023-05-07T17:56:54.193Z,2.05
2023-05-07T17:59:21.290Z,2.17
2023-05-07T18:01:48.577Z,1.85
2023-05-07T18:04:15.825Z,1.80
2023-05-07T18:06:42.963Z,2.40
2023-05-07T18:09:10.144Z,2.15
2023-05-07T18:11:37.810Z,2.45
2023-05-07T18:14:05.125Z,1.85
2023-05-07T18:16:32.406Z,2.17
2023-05-07T18:18:59.720Z,2.33
2023-05-07T18:21:27.217Z,2.25
2023-05-07T18:23:54.411Z,2.10
2023-05-07T18:26:21.591Z,2.10
2023-05-07T18:28:48.880Z,1.63
2023-05-07T18:31:16.106Z,1.88
2023-05-07T18:33:43.422Z,2.28
2023-05-07T18:36:10.765Z,2.03
2023-05-07T18:38:38.930Z,2.13
2023-05-07T18:41:06.475Z,2.22
2023-05-07T18:43:34.261Z,2.20
2023-05-07T18:46:01.815Z,1.73
2023-05-07T18:48:29.025Z,1.95
2023-05-07T18:50:56.947Z,1.80
2023-05-07T18:53:24.341Z,2.38
2023-05-07T18:55:52.259Z,2.10
2023-05-07T18:58:19.791Z,2.00
2023-05-07T19:00:48.065Z,2.17
2023-05-07T19:03:15.897Z,2.00
2023-05-07T19:05:43.739Z,2.05
2023-05-07T19:08:10.998Z,2.40
2023-05-07T19:10:38.794Z,2.10
2023-05-07T19:13:06.052Z,1.90
2023-05-07T19:15:33.241Z,2.20
2023-05-07T19:18:00.544Z,2.40
2023-05-07T19:20:27.765Z,2.28
2023-05-07T19:22:54.884Z,2.70
2023-05-07T19:25:22.036Z,2.13
2023-05-07T19:27:50.801Z,2.67
2023-05-07T19:30:18.245Z,2.78
2023-05-07T19:32:45.397Z,2.33
2023-05-07T19:35:12.718Z,1.85
2023-05-07T19:37:40.354Z,2.20
2023-05-07T19:40:08.778Z,1.90
2023-05-07T19:42:36.217Z,2.00
2023-05-07T19:45:04.257Z,2.38
2023-05-07T19:47:31.466Z,2.60
2023-05-07T19:49:58.640Z,3.15
2023-05-07T19:52:25.781Z,2.88
2023-05-07T19:54:52.889Z,3.30
2023-05-07T19:57:19.978Z,4.55
2023-05-07T19:59:47.484Z,3.42
2023-05-07T20:02:15.404Z,3.60
2023-05-07T20:04:42.997Z,3.10
2023-05-07T20:07:10.167Z,3.40
2023-05-07T20:09:37.255Z,4.00
2023-05-07T20:12:04.546Z,3.83
2023-05-07T20:14:32.538Z,3.80
2023-05-07T20:16:59.738Z,4.15
2023-05-07T20:19:26.887Z,4.00
2023-05-07T20:21:54.068Z,4.78
2023-05-07T20:24:21.268Z,4.20
2023-05-07T20:26:48.367Z,4.88
2023-05-07T20:29:15.472Z,4.47
2023-05-07T20:31:43.433Z,4.35
2023-05-07T20:34:10.753Z,5.30
2023-05-07T20:36:37.971Z,5.10
2023-05-07T20:39:05.607Z,5.78
2023-05-07T20:41:32.830Z,5.82
2023-05-07T20:44:01.205Z,5.75
2023-05-07T20:46:28.394Z,5.13
2023-05-07T20:48:56.612Z,5.20
2023-05-07T20:51:23.715Z,5.82
2023-05-07T20:53:50.889Z,4.65
2023-05-07T20:56:18.043Z,5.15
2023-05-07T20:58:45.360Z,5.47
2023-05-07T21:01:12.582Z,5.65
2023-05-07T21:03:39.738Z,6.78
2023-05-07T21:06:06.966Z,7.22
2023-05-07T21:08:34.693Z,6.28
2023-05-07T21:11:01.813Z,6.68
2023-05-07T21:13:28.962Z,5.85
2023-05-07T21:15:56.090Z,6.10
2023-05-07T21:18:25.246Z,6.28
2023-05-07T21:20:52.354Z,5.72
2023-05-07T21:23:19.499Z,5.72
2023-05-07T21:25:47.608Z,6.28
2023-05-07T21:28:14.744Z,6.10
2023-05-07T21:30:41.934Z,6.43
2023-05-07T21:33:09.457Z,5.63
2023-05-07T21:35:36.976Z,5.95
2023-05-07T21:38:04.197Z,6.70
2023-05-07T21:40:31.595Z,6.63
2023-05-07T21:43:02.486Z,6.22
2023-05-07T21:45:29.699Z,5.47
2023-05-07T21:47:56.997Z,6.90
2023-05-07T21:50:24.354Z,6.25
2023-05-07T21:52:51.504Z,6.60
2023-05-07T21:55:18.871Z,7.00
2023-05-07T21:57:57.507Z,6.50
2023-05-07T22:00:31.688Z,5.88
2023-05-07T22:02:58.909Z,6.10
2023-05-07T22:05:26.108Z,5.93
2023-05-07T22:07:53.289Z,7.70
2023-05-07T22:10:22.681Z,6.50
2023-05-07T22:12:50.292Z,6.40
2023-05-07T22:15:17.654Z,7.10
2023-05-07T22:17:44.850Z,6.57
2023-05-07T22:20:12.516Z,6.63
2023-05-07T22:22:47.493Z,7.03
2023-05-07T22:25:15.691Z,6.38
2023-05-07T22:27:42.933Z,6.82
2023-05-07T22:30:10.377Z,6.38
2023-05-07T22:32:37.864Z,7.07
2023-05-07T22:35:05.349Z,7.43
2023-05-07T22:37:32.495Z,7.28
2023-05-07T22:39:59.604Z,8.07
2023-05-07T22:42:26.868Z,7.15
2023-05-07T22:44:54.692Z,6.85
2023-05-07T22:47:21.822Z,7.05
2023-05-07T22:49:48.977Z,6.50
2023-05-07T22:52:16.296Z,6.75
2023-05-07T22:54:43.427Z,7.28
2023-05-07T22:57:10.560Z,6.40
2023-05-07T22:59:37.788Z,6.35
2023-05-07T23:02:05.180Z,6.93
2023-05-07T23:04:32.422Z,6.68
2023-05-07T23:06:59.547Z,6.93
2023-05-07T23:09:26.687Z,8.02
2023-05-07T23:11:53.801Z,8.10
2023-05-07T23:14:22.564Z,7.32
2023-05-07T23:16:51.539Z,8.07
2023-05-07T23:19:18.845Z,7.13
2023-05-07T23:21:45.983Z,7.00
2023-05-07T23:24:13.090Z,7.15
2023-05-07T23:26:40.230Z,7.50
2023-05-07T23:29:07.352Z,7.07
2023-05-07T23:31:34.600Z,7.30
2023-05-07T23:34:01.742Z,7.18
2023-05-07T23:36:29.023Z,6.22
2023-05-07T23:38:56.124Z,7.88
2023-05-07T23:41:23.217Z,7.10
2023-05-07T23:43:50.384Z,9.07
2023-05-07T23:46:17.631Z,7.18
2023-05-07T23:48:44.919Z,7.20
2023-05-07T23:51:11.993Z,7.22
2023-05-07T23:53:39.189Z,7.43
2023-05-07T23:56:06.352Z,8.10
2023-05-07T23:58:33.512Z,8.70
